createdAt,value
2023-03-20T00:00:34.028Z,11.48
2023-03-20T00:01:24.406Z,11.18
2023-03-20T00:03:01.893Z,12.02
2023-03-20T00:03:52.272Z,12.43
2023-03-20T00:05:30.253Z,11.45
2023-03-20T00:06:21.981Z,10.98
2023-03-20T00:07:58.710Z,11.60
2023-03-20T00:08:51.788Z,13.63
2023-03-20T00:10:32.701Z,10.88
2023-03-20T00:11:34.539Z,14.45
2023-03-20T00:13:00.284Z,10.10
2023-03-20T00:14:06.075Z,14.00
2023-03-20T00:15:31.370Z,10.32
2023-03-20T00:16:36.139Z,13.18
2023-03-20T00:17:58.976Z,9.10
2023-03-20T00:19:04.907Z,12.23
2023-03-20T00:20:26.596Z,8.95
2023-03-20T00:21:33.062Z,10.45
2023-03-20T00:22:54.379Z,8.45
2023-03-20T00:24:00.728Z,10.95
2023-03-20T00:25:24.446Z,8.75
2023-03-20T00:26:33.497Z,10.35
2023-03-20T00:27:52.082Z,8.70
2023-03-20T00:29:02.973Z,9.82
2023-03-20T00:30:29.246Z,8.93
2023-03-20T00:31:36.253Z,10.27
2023-03-20T00:32:58.073Z,8.65
2023-03-20T00:34:10.126Z,9.60
2023-03-20T00:35:29.535Z,8.40
2023-03-20T00:36:37.738Z,9.55
2023-03-20T00:37:59.699Z,8.95
2023-03-20T00:39:05.429Z,8.98
2023-03-20T00:40:31.912Z,9.00
2023-03-20T00:41:39.092Z,5.07
2023-03-20T00:43:02.076Z,9.35
2023-03-20T00:44:19.784Z,7.68
2023-03-20T00:45:32.623Z,9.85
2023-03-20T00:46:52.477Z,6.60
2023-03-20T00:47:59.778Z,10.55
2023-03-20T00:49:25.597Z,7.40
2023-03-20T00:50:29.850Z,9.38
2023-03-20T00:51:53.283Z,7.25
2023-03-20T00:52:59.397Z,9.25
2023-03-20T00:54:20.887Z,7.95
2023-03-20T00:55:29.329Z,10.15
2023-03-20T00:56:56.824Z,8.90
2023-03-20T00:58:00.830Z,9.18
2023-03-20T00:59:26.930Z,7.97
2023-03-20T01:00:37.006Z,9.98
2023-03-20T01:01:54.631Z,7.18
2023-03-20T01:03:14.291Z,9.18
2023-03-20T01:04:22.722Z,7.47
2023-03-20T01:05:41.919Z,8.38
2023-03-20T01:06:52.671Z,7.35
2023-03-20T01:08:15.770Z,8.57
2023-03-20T01:09:20.302Z,8.05
2023-03-20T01:10:45.162Z,7.90
2023-03-20T01:11:48.047Z,7.60
2023-03-20T01:13:23.949Z,8.43
2023-03-20T01:14:16.912Z,8.00
2023-03-20T01:15:52.852Z,7.72
2023-03-20T01:16:44.809Z,8.48
2023-03-20T01:18:21.890Z,8.27
2023-03-20T01:19:16.841Z,8.25
2023-03-20T01:20:49.864Z,7.22
2023-03-20T01:21:44.595Z,8.30
2023-03-20T01:23:16.968Z,7.38
2023-03-20T01:24:12.461Z,8.85
2023-03-20T01:25:44.058Z,7.95
2023-03-20T01:26:42.205Z,7.57
2023-03-20T01:28:20.825Z,7.47
2023-03-20T01:29:24.940Z,8.32
2023-03-20T01:30:48.510Z,7.60
2023-03-20T01:31:54.104Z,9.10
2023-03-20T01:33:22.076Z,7.50
2023-03-20T01:34:24.574Z,8.48
2023-03-20T01:35:53.914Z,7.25
2023-03-20T01:36:57.282Z,8.45
2023-03-20T01:38:26.222Z,6.95
2023-03-20T01:39:33.195Z,8.43
2023-03-20T01:40:58.257Z,7.45
2023-03-20T01:42:02.264Z,9.50
2023-03-20T01:43:28.643Z,7.65
2023-03-20T01:44:33.776Z,9.00
2023-03-20T01:46:11.264Z,7.72
2023-03-20T01:47:03.393Z,8.45
2023-03-20T01:49:00.676Z,7.30
2023-03-20T01:49:49.534Z,9.32
2023-03-20T01:51:32.966Z,7.22
2023-03-20T01:54:10.798Z,7.20
2023-03-20T01:54:44.884Z,8.88
2023-03-20T01:56:52.567Z,7.68
2023-03-20T01:57:17.530Z,9.02
2023-03-20T01:59:42.203Z,8.35
2023-03-20T01:59:54.176Z,8.80
2023-03-20T02:02:13.259Z,7.30
2023-03-20T02:02:25.514Z,10.43
2023-03-20T02:04:44.980Z,7.40
2023-03-20T02:05:04.974Z,9.15
2023-03-20T02:07:18.339Z,8.02
2023-03-20T02:07:35.839Z,8.68
2023-03-20T02:09:58.519Z,8.07
2023-03-20T02:10:09.625Z,9.45
2023-03-20T02:12:48.023Z,8.48
2023-03-20T02:12:48.768Z,7.78
2023-03-20T02:15:27.222Z,7.78
2023-03-20T02:15:27.475Z,7.63
2023-03-20T02:18:14.875Z,8.35
2023-03-20T02:18:15.419Z,9.18
2023-03-20T02:21:02.188Z,9.32
2023-03-20T02:21:24.959Z,7.78
2023-03-20T02:23:44.004Z,9.95
2023-03-20T02:24:30.809Z,8.18
2023-03-20T02:26:22.540Z,10.65
2023-03-20T02:27:18.120Z,7.88
2023-03-20T02:29:05.830Z,11.15
2023-03-20T02:30:04.678Z,8.25
2023-03-20T02:31:54.386Z,10.95
2023-03-20T02:33:06.074Z,8.15
2023-03-20T02:34:42.224Z,11.88
2023-03-20T02:35:33.133Z,8.05
2023-03-20T02:37:30.965Z,11.50
2023-03-20T02:38:20.118Z,8.70
2023-03-20T02:40:25.853Z,12.05
2023-03-20T02:41:22.621Z,8.90
2023-03-20T02:43:12.490Z,11.43
2023-03-20T02:44:02.232Z,9.02
2023-03-20T02:45:45.876Z,13.05
2023-03-20T02:46:34.254Z,9.00
2023-03-20T02:48:31.291Z,11.70
2023-03-20T02:49:22.197Z,9.10
2023-03-20T02:51:06.057Z,13.10
2023-03-20T02:52:00.273Z,8.83
2023-03-20T02:53:51.446Z,10.55
2023-03-20T02:54:46.090Z,9.55
2023-03-20T02:56:20.217Z,12.63
2023-03-20T02:57:34.803Z,9.77
2023-03-20T02:58:51.945Z,11.40
2023-03-20T03:00:09.756Z,10.15
2023-03-20T03:01:33.443Z,11.27
2023-03-20T03:02:50.645Z,10.43
2023-03-20T03:04:09.005Z,11.48
2023-03-20T03:05:27.503Z,10.23
2023-03-20T03:06:38.876Z,14.95
2023-03-20T03:07:59.737Z,10.13
2023-03-20T03:09:17.862Z,14.32
2023-03-20T03:10:34.097Z,9.73
2023-03-20T03:11:54.001Z,14.57
2023-03-20T03:13:03.617Z,10.02
2023-03-20T03:14:48.864Z,13.77
2023-03-20T03:15:44.824Z,9.63
2023-03-20T03:17:20.293Z,13.30
2023-03-20T03:18:17.992Z,10.15
2023-03-20T03:20:00.875Z,13.50
2023-03-20T03:20:48.162Z,10.13
2023-03-20T03:22:31.909Z,14.32
2023-03-20T03:23:27.789Z,10.40
2023-03-20T03:24:59.584Z,14.30
2023-03-20T03:25:57.681Z,10.20
2023-03-20T03:27:36.800Z,11.05
2023-03-20T03:28:38.910Z,10.30
2023-03-20T03:30:12.264Z,8.95
2023-03-20T03:31:12.915Z,10.57
2023-03-20T03:32:47.953Z,8.05
2023-03-20T03:33:43.444Z,10.80
2023-03-20T03:35:18.037Z,8.63
2023-03-20T03:36:35.815Z,11.15
2023-03-20T03:38:00.550Z,9.73
2023-03-20T03:39:15.413Z,11.23
2023-03-20T03:40:33.052Z,12.38
2023-03-20T03:41:52.141Z,10.93
2023-03-20T03:43:07.209Z,12.65
2023-03-20T03:44:26.403Z,11.63
2023-03-20T03:45:40.534Z,10.93
2023-03-20T03:47:02.926Z,11.73
2023-03-20T03:48:18.220Z,11.50
2023-03-20T03:49:38.285Z,10.82
2023-03-20T03:50:56.391Z,9.55
2023-03-20T03:52:11.629Z,11.38
2023-03-20T03:53:36.986Z,12.77
2023-03-20T03:54:46.729Z,11.07
2023-03-20T03:56:09.125Z,11.50
2023-03-20T03:57:42.489Z,11.30
2023-03-20T03:58:52.408Z,11.93
2023-03-20T04:00:17.512Z,11.15
2023-03-20T04:01:21.637Z,10.85
2023-03-20T04:02:47.744Z,11.55
2023-03-20T04:03:58.333Z,12.27
2023-03-20T04:05:16.117Z,11.07
2023-03-20T04:06:28.317Z,9.63
2023-03-20T04:07:47.507Z,11.85
2023-03-20T04:08:56.146Z,11.90
2023-03-20T04:10:15.471Z,11.05
2023-03-20T04:11:25.948Z,11.02
2023-03-20T04:12:44.753Z,10.52
2023-03-20T04:13:54.369Z,10.00
2023-03-20T04:15:13.535Z,10.93
2023-03-20T04:16:23.310Z,9.57
2023-03-20T04:17:40.909Z,11.77
2023-03-20T04:18:51.784Z,12.55
2023-03-20T04:20:11.152Z,11.02
2023-03-20T04:21:19.748Z,12.25
2023-03-20T04:22:38.289Z,11.35
2023-03-20T04:23:48.598Z,10.75
2023-03-20T04:25:17.970Z,12.30
2023-03-20T04:26:16.584Z,9.77
2023-03-20T04:27:45.001Z,11.38
2023-03-20T04:28:44.668Z,7.85
2023-03-20T04:30:20.116Z,12.13
2023-03-20T04:31:41.405Z,7.00
2023-03-20T04:33:06.750Z,11.27
2023-03-20T04:34:16.351Z,7.68
2023-03-20T04:37:08.483Z,9.90
2023-03-20T04:38:40.527Z,10.55
2023-03-20T04:39:51.008Z,10.00
2023-03-20T04:41:08.905Z,11.27
2023-03-20T04:42:18.738Z,7.75
2023-03-20T04:43:36.530Z,10.77
2023-03-20T04:44:46.383Z,6.00
2023-03-20T04:46:04.820Z,10.88
2023-03-20T04:47:14.397Z,6.18
2023-03-20T04:48:32.128Z,10.75
2023-03-20T04:49:43.759Z,8.38
2023-03-20T04:50:59.333Z,11.48
2023-03-20T04:52:11.681Z,6.60
2023-03-20T04:53:38.366Z,10.55
2023-03-20T04:54:42.341Z,6.90
2023-03-20T04:56:06.222Z,11.15
2023-03-20T04:57:10.050Z,6.45
2023-03-20T04:58:35.922Z,10.05
2023-03-20T04:59:38.697Z,11.90
2023-03-20T05:01:04.107Z,10.77
2023-03-20T05:02:07.135Z,13.07
2023-03-20T05:03:31.235Z,9.68
2023-03-20T05:04:34.922Z,13.30
2023-03-20T05:05:59.304Z,9.98
2023-03-20T05:07:03.285Z,11.95
2023-03-20T05:08:27.191Z,9.98
2023-03-20T05:09:39.354Z,11.93
2023-03-20T05:10:58.798Z,10.32
2023-03-20T05:12:09.754Z,11.90
2023-03-20T05:13:51.855Z,10.30
2023-03-20T05:14:56.009Z,11.50
2023-03-20T05:16:39.712Z,9.63
2023-03-20T05:17:38.462Z,11.07
2023-03-20T05:19:31.146Z,9.30
2023-03-20T05:20:28.437Z,11.27
2023-03-20T05:22:18.006Z,9.38
2023-03-20T05:23:06.223Z,10.15
2023-03-20T05:24:55.357Z,9.45
2023-03-20T05:26:03.458Z,7.80
2023-03-20T05:27:54.903Z,8.13
2023-03-20T05:28:39.519Z,11.02
2023-03-20T05:30:29.866Z,9.48
2023-03-20T05:31:15.512Z,9.40
2023-03-20T05:33:15.049Z,8.60
2023-03-20T05:34:01.444Z,8.90
2023-03-20T05:35:53.764Z,9.20
2023-03-20T05:36:40.774Z,9.27
2023-03-20T05:38:57.074Z,9.07
2023-03-20T05:39:27.067Z,6.82
2023-03-20T05:41:46.667Z,9.32
2023-03-20T05:42:17.446Z,9.85
2023-03-20T05:44:45.038Z,9.25
2023-03-20T05:47:17.844Z,8.48
2023-03-20T05:47:25.959Z,10.88
2023-03-20T05:50:26.158Z,11.02
2023-03-20T05:52:50.701Z,8.18
2023-03-20T05:53:11.774Z,10.63
2023-03-20T05:55:34.029Z,8.93
2023-03-20T05:55:54.328Z,10.15
2023-03-20T05:58:14.900Z,8.20
2023-03-20T05:58:52.803Z,5.82
2023-03-20T06:00:58.977Z,8.57
2023-03-20T06:01:33.569Z,8.32
2023-03-20T06:03:44.738Z,7.97
2023-03-20T06:04:14.707Z,6.28
2023-03-20T06:07:06.684Z,4.47
2023-03-20T06:08:49.669Z,8.38
2023-03-20T06:09:35.517Z,4.90
2023-03-20T06:11:17.416Z,8.48
2023-03-20T06:12:07.593Z,9.70
2023-03-20T06:13:45.308Z,7.53
2023-03-20T06:14:36.864Z,6.20
2023-03-20T06:16:13.131Z,8.48
2023-03-20T06:17:13.057Z,9.48
2023-03-20T06:18:40.390Z,7.75
2023-03-20T06:19:41.771Z,8.65
2023-03-20T06:21:09.542Z,7.75
2023-03-20T06:22:09.420Z,4.85
2023-03-20T06:23:36.878Z,7.28
2023-03-20T06:24:38.226Z,7.40
2023-03-20T06:26:04.208Z,8.00
2023-03-20T06:27:06.845Z,8.52
2023-03-20T06:28:43.392Z,7.85
2023-03-20T06:29:34.861Z,8.77
2023-03-20T06:31:10.515Z,7.47
2023-03-20T06:32:17.339Z,4.32
2023-03-20T06:33:38.125Z,7.22
2023-03-20T06:34:46.691Z,6.60
2023-03-20T06:36:05.566Z,8.02
2023-03-20T06:37:14.469Z,8.80
2023-03-20T06:38:33.040Z,7.97
2023-03-20T06:39:42.168Z,5.68
2023-03-20T06:41:06.869Z,7.28
2023-03-20T06:42:15.699Z,8.48
2023-03-20T06:43:34.556Z,6.30
2023-03-20T06:44:44.143Z,8.10
2023-03-20T06:46:01.689Z,5.35
2023-03-20T06:47:16.596Z,7.60
2023-03-20T06:48:38.677Z,5.10
2023-03-20T06:49:45.927Z,8.07
2023-03-20T06:51:09.096Z,5.57
2023-03-20T06:52:18.783Z,7.55
2023-03-20T06:53:45.132Z,5.00
2023-03-20T06:54:56.324Z,6.97
2023-03-20T06:56:21.459Z,5.35
2023-03-20T06:57:24.327Z,7.18
2023-03-20T06:58:48.581Z,6.13
2023-03-20T06:59:52.038Z,6.68
2023-03-20T07:01:17.768Z,6.43
2023-03-20T07:02:19.706Z,3.95
2023-03-20T07:03:45.490Z,6.63
2023-03-20T07:04:47.463Z,7.32
2023-03-20T07:06:13.456Z,6.47
2023-03-20T07:07:15.284Z,6.18
2023-03-20T07:08:40.906Z,6.30
2023-03-20T07:09:43.265Z,5.32
2023-03-20T07:11:09.166Z,5.50
2023-03-20T07:12:14.481Z,7.38
2023-03-20T07:13:36.762Z,5.78
2023-03-20T07:14:44.077Z,7.63
2023-03-20T07:16:18.065Z,5.85
2023-03-20T07:17:16.841Z,3.78
2023-03-20T07:18:45.174Z,6.03
2023-03-20T07:19:44.947Z,7.60
2023-03-20T07:21:18.982Z,5.97
2023-03-20T07:22:26.089Z,8.63
2023-03-20T07:23:46.536Z,5.43
2023-03-20T07:25:03.060Z,7.68
2023-03-20T07:26:14.822Z,5.20
2023-03-20T07:27:31.018Z,5.18
2023-03-20T07:28:41.980Z,5.70
2023-03-20T07:29:59.073Z,7.30
2023-03-20T07:31:26.823Z,5.50
2023-03-20T07:32:27.198Z,7.22
2023-03-20T07:34:02.649Z,5.88
2023-03-20T07:34:55.232Z,6.65
2023-03-20T07:36:30.207Z,5.70
2023-03-20T07:37:23.098Z,5.80
2023-03-20T07:38:57.265Z,5.00
2023-03-20T07:40:04.079Z,7.35
2023-03-20T07:41:25.815Z,5.03
2023-03-20T07:42:33.857Z,7.35
2023-03-20T07:44:01.881Z,5.28
2023-03-20T07:45:16.766Z,7.63
2023-03-20T07:46:44.412Z,4.63
2023-03-20T07:47:49.372Z,7.38
2023-03-20T07:49:11.959Z,4.85
2023-03-20T07:50:17.595Z,7.70
2023-03-20T07:51:39.832Z,5.07
2023-03-20T07:52:49.902Z,6.90
2023-03-20T07:54:06.962Z,6.57
2023-03-20T07:55:18.730Z,3.15
2023-03-20T07:56:34.191Z,6.55
2023-03-20T07:57:49.711Z,2.97
2023-03-20T07:59:01.269Z,6.15
2023-03-20T08:00:18.878Z,8.07
2023-03-20T08:01:28.360Z,6.93
2023-03-20T08:02:46.791Z,8.40
2023-03-20T08:03:55.790Z,6.57
2023-03-20T08:05:14.519Z,8.88
2023-03-20T08:06:22.885Z,6.13
2023-03-20T08:07:42.428Z,8.00
2023-03-20T08:08:52.444Z,6.60
2023-03-20T08:10:10.976Z,8.95
2023-03-20T08:11:20.039Z,6.40
2023-03-20T08:12:38.627Z,9.02
2023-03-20T08:13:47.283Z,6.55
2023-03-20T08:15:06.844Z,9.05
2023-03-20T08:16:14.410Z,6.43
2023-03-20T08:17:34.534Z,6.30
2023-03-20T08:18:42.497Z,5.53
2023-03-20T08:20:02.233Z,6.90
2023-03-20T08:21:09.723Z,6.65
2023-03-20T08:22:30.037Z,8.02
2023-03-20T08:23:36.878Z,6.10
2023-03-20T08:24:58.057Z,8.02
2023-03-20T08:26:03.990Z,6.63
2023-03-20T08:27:25.913Z,7.90
2023-03-20T08:28:46.604Z,5.57
2023-03-20T08:29:53.551Z,7.25
2023-03-20T08:31:15.710Z,6.13
2023-03-20T08:32:21.247Z,5.88
2023-03-20T08:33:42.878Z,5.78
2023-03-20T08:34:48.938Z,8.23
2023-03-20T08:36:10.087Z,6.13
2023-03-20T08:37:16.760Z,5.82
2023-03-20T08:38:37.518Z,5.50
2023-03-20T08:39:44.544Z,8.30
2023-03-20T08:41:06.979Z,5.40
2023-03-20T08:42:12.188Z,7.45
2023-03-20T08:43:34.067Z,5.65
2023-03-20T08:44:40.006Z,6.78
2023-03-20T08:46:01.184Z,5.50
2023-03-20T08:47:07.980Z,5.90
2023-03-20T08:48:28.374Z,5.93
2023-03-20T08:49:35.656Z,6.53
2023-03-20T08:50:55.449Z,5.60
2023-03-20T08:52:03.619Z,6.07
2023-03-20T08:53:22.510Z,5.68
2023-03-20T08:54:31.345Z,4.60
2023-03-20T08:55:53.372Z,5.35
2023-03-20T08:56:58.963Z,6.10
2023-03-20T08:58:21.527Z,4.97
2023-03-20T08:59:26.546Z,7.57
2023-03-20T09:00:49.027Z,5.00
2023-03-20T09:01:54.440Z,7.30
2023-03-20T09:03:19.428Z,4.82
2023-03-20T09:04:24.068Z,6.25
2023-03-20T09:05:48.032Z,5.20
2023-03-20T09:06:51.883Z,6.07
2023-03-20T09:08:15.403Z,4.78
2023-03-20T09:09:21.539Z,5.88
2023-03-20T09:10:42.505Z,4.80
2023-03-20T09:11:49.229Z,4.63
2023-03-20T09:13:26.293Z,5.25
2023-03-20T09:14:16.989Z,5.32
2023-03-20T09:15:55.297Z,4.63
2023-03-20T09:16:44.609Z,4.80
2023-03-20T09:18:23.265Z,4.70
2023-03-20T09:19:12.207Z,5.25
2023-03-20T09:20:50.900Z,5.50
2023-03-20T09:21:39.867Z,4.70
2023-03-20T09:23:18.547Z,5.10
2023-03-20T09:24:07.703Z,4.95
2023-03-20T09:25:46.733Z,5.35
2023-03-20T09:26:35.524Z,6.07
2023-03-20T09:28:13.803Z,4.85
2023-03-20T09:29:03.168Z,5.40
2023-03-20T09:30:43.326Z,5.22
2023-03-20T09:31:30.982Z,6.20
2023-03-20T09:33:10.619Z,5.38
2023-03-20T09:33:58.677Z,6.97
2023-03-20T09:35:38.573Z,5.32
2023-03-20T09:36:26.322Z,4.20
2023-03-20T09:38:06.787Z,5.10
2023-03-20T09:38:54.090Z,6.50
2023-03-20T09:40:51.318Z,5.35
2023-03-20T09:41:28.363Z,5.60
2023-03-20T09:43:24.416Z,5.20
2023-03-20T09:44:04.941Z,6.05
2023-03-20T09:46:06.042Z,4.47
2023-03-20T09:47:19.812Z,6.18
2023-03-20T09:48:54.292Z,5.15
2023-03-20T09:49:54.505Z,6.68
2023-03-20T09:51:41.021Z,4.65
2023-03-20T09:52:34.786Z,5.75
2023-03-20T09:54:21.753Z,5.00
2023-03-20T09:55:24.262Z,5.85
2023-03-20T09:56:51.002Z,4.55
2023-03-20T09:57:54.824Z,5.45
2023-03-20T09:59:20.797Z,4.72
2023-03-20T10:00:28.414Z,5.18
2023-03-20T10:01:52.650Z,4.47
2023-03-20T10:03:29.325Z,5.18
2023-03-20T10:04:19.880Z,4.57
2023-03-20T10:06:12.571Z,3.97
2023-03-20T10:06:47.355Z,3.88
2023-03-20T10:08:40.286Z,5.25
2023-03-20T10:09:23.321Z,4.20
2023-03-20T10:11:38.549Z,5.18
2023-03-20T10:12:04.768Z,4.07
2023-03-20T10:14:26.502Z,4.80
2023-03-20T10:15:00.696Z,3.42
2023-03-20T10:17:06.699Z,4.80
2023-03-20T10:18:04.672Z,4.07
2023-03-20T10:19:45.199Z,4.20
2023-03-20T10:20:36.856Z,3.47
2023-03-20T10:22:25.847Z,6.03
2023-03-20T10:23:18.460Z,3.60
2023-03-20T10:25:03.467Z,5.53
2023-03-20T10:25:51.047Z,3.03
2023-03-20T10:27:39.911Z,6.07
2023-03-20T10:28:24.430Z,2.67
2023-03-20T10:31:12.924Z,2.97
2023-03-20T10:32:57.241Z,5.25
2023-03-20T10:33:52.113Z,2.58
2023-03-20T10:35:34.422Z,4.85
2023-03-20T10:36:19.096Z,2.72
2023-03-20T10:38:27.119Z,4.13
2023-03-20T10:39:04.657Z,3.60
2023-03-20T10:40:57.933Z,4.32
2023-03-20T10:41:40.880Z,3.10
2023-03-20T10:43:33.600Z,5.80
2023-03-20T10:44:29.202Z,2.40
2023-03-20T10:46:04.324Z,4.57
2023-03-20T10:46:59.042Z,2.70
2023-03-20T10:48:34.550Z,3.85
2023-03-20T10:49:44.213Z,2.50
2023-03-20T10:51:03.871Z,4.88
2023-03-20T10:52:19.318Z,2.50
2023-03-20T10:53:55.054Z,4.45
2023-03-20T10:56:42.302Z,4.03
2023-03-20T10:57:27.696Z,2.65
2023-03-20T10:59:19.214Z,4.20
2023-03-20T10:59:57.126Z,2.80
2023-03-20T11:01:46.822Z,4.80
2023-03-20T11:02:32.134Z,2.78
2023-03-20T11:04:15.518Z,5.38
2023-03-20T11:05:01.811Z,2.75
2023-03-20T11:06:48.831Z,5.03
2023-03-20T11:07:34.048Z,2.90
2023-03-20T11:09:20.432Z,4.75
2023-03-20T11:10:03.947Z,2.92
2023-03-20T11:11:53.895Z,3.92
2023-03-20T11:12:40.458Z,2.95
2023-03-20T11:14:27.516Z,3.17
2023-03-20T11:15:34.682Z,2.60
2023-03-20T11:16:57.323Z,4.18
2023-03-20T11:18:05.434Z,2.83
2023-03-20T11:19:25.916Z,3.20
2023-03-20T11:20:36.149Z,2.95
2023-03-20T11:22:00.245Z,4.65
2023-03-20T11:23:06.143Z,2.78
2023-03-20T11:24:36.614Z,4.57
2023-03-20T11:25:36.886Z,3.08
2023-03-20T11:28:21.004Z,3.03
2023-03-20T11:29:45.919Z,4.32
2023-03-20T11:31:03.919Z,2.85
2023-03-20T11:32:16.703Z,3.30
2023-03-20T11:33:34.730Z,3.30
2023-03-20T11:34:44.503Z,4.32
2023-03-20T11:36:01.952Z,3.08
2023-03-20T11:37:25.624Z,3.25
2023-03-20T11:38:31.336Z,3.10
2023-03-20T11:40:01.505Z,4.85
2023-03-20T11:40:58.444Z,3.10
2023-03-20T11:42:30.980Z,4.80
2023-03-20T11:43:27.655Z,3.03
2023-03-20T11:45:01.049Z,3.50
2023-03-20T11:45:58.075Z,3.42
2023-03-20T11:47:31.574Z,3.30
2023-03-20T11:48:36.882Z,3.45
2023-03-20T11:50:01.541Z,4.57
2023-03-20T11:51:05.807Z,3.33
2023-03-20T11:52:35.771Z,4.28
2023-03-20T11:53:40.547Z,3.63
2023-03-20T11:55:07.198Z,4.03
2023-03-20T11:56:12.512Z,3.17
2023-03-20T11:57:42.197Z,4.15
2023-03-20T11:58:49.250Z,3.20
2023-03-20T12:00:13.249Z,4.63
2023-03-20T12:01:16.484Z,3.70
2023-03-20T12:02:41.973Z,5.55
2023-03-20T12:03:55.852Z,3.55
2023-03-20T12:05:41.660Z,5.53
2023-03-20T12:06:27.220Z,3.53
2023-03-20T12:08:27.006Z,5.07
2023-03-20T12:09:02.463Z,3.95
2023-03-20T12:11:01.039Z,4.15
2023-03-20T12:11:46.561Z,3.80
2023-03-20T12:13:35.471Z,5.25
2023-03-20T12:14:23.728Z,3.45
2023-03-20T12:16:06.445Z,3.80
2023-03-20T12:16:59.952Z,3.53
2023-03-20T12:18:43.092Z,5.70
2023-03-20T12:19:30.730Z,3.75
2023-03-20T12:21:23.395Z,4.68
2023-03-20T12:22:13.141Z,3.20
2023-03-20T12:23:57.455Z,4.43
2023-03-20T12:24:47.880Z,3.35
2023-03-20T12:26:29.164Z,4.13
2023-03-20T12:27:29.816Z,3.13
2023-03-20T12:29:22.622Z,5.20
2023-03-20T12:30:24.745Z,3.55
2023-03-20T12:32:02.981Z,4.57
2023-03-20T12:33:02.884Z,3.97
2023-03-20T12:34:35.841Z,5.10
2023-03-20T12:35:33.566Z,3.83
2023-03-20T12:37:03.717Z,3.53
2023-03-20T12:38:00.806Z,4.00
2023-03-20T12:39:38.608Z,5.28
2023-03-20T12:40:43.812Z,3.85
2023-03-20T12:42:20.944Z,6.40
2023-03-20T12:43:28.454Z,4.15
2023-03-20T12:45:01.195Z,5.70
2023-03-20T12:46:09.409Z,4.20
2023-03-20T12:47:28.841Z,6.53
2023-03-20T12:49:12.132Z,3.92
2023-03-20T12:50:26.479Z,6.20
2023-03-20T12:51:59.889Z,3.70
2023-03-20T12:53:35.196Z,2.60
2023-03-20T12:55:01.459Z,3.92
2023-03-20T12:56:32.349Z,3.53
2023-03-20T12:57:56.682Z,3.80
2023-03-20T12:59:28.121Z,3.50
2023-03-20T13:00:40.354Z,4.33
2023-03-20T13:02:24.807Z,3.53
2023-03-20T13:03:36.199Z,4.90
2023-03-20T13:05:15.472Z,3.95
2023-03-20T13:06:09.331Z,4.45
2023-03-20T13:07:59.785Z,4.00
2023-03-20T13:08:43.828Z,4.53
2023-03-20T13:10:50.402Z,5.97
2023-03-20T13:11:24.676Z,4.50
2023-03-20T13:13:28.953Z,4.93
2023-03-20T13:13:56.846Z,4.50
2023-03-20T13:16:26.765Z,4.30
2023-03-20T13:16:37.858Z,4.10
2023-03-20T13:19:04.733Z,4.35
2023-03-20T13:19:11.206Z,5.43
2023-03-20T13:21:37.504Z,4.85
2023-03-20T13:21:55.408Z,4.05
2023-03-20T13:24:31.007Z,3.63
2023-03-20T13:24:32.869Z,4.78
2023-03-20T13:27:04.189Z,4.75
2023-03-20T13:27:23.612Z,4.13
2023-03-20T13:29:44.791Z,4.13
2023-03-20T13:30:08.865Z,4.85
2023-03-20T13:32:25.976Z,3.65
2023-03-20T13:32:38.964Z,4.85
2023-03-20T13:35:15.001Z,4.35
2023-03-20T13:35:21.283Z,4.18
2023-03-20T13:37:49.928Z,4.32
2023-03-20T13:37:52.119Z,5.30
2023-03-20T13:40:26.262Z,4.60
2023-03-20T13:40:40.527Z,4.78
2023-03-20T13:43:22.319Z,4.10
2023-03-20T13:43:57.207Z,4.30
2023-03-20T13:45:54.934Z,4.57
2023-03-20T13:46:32.474Z,3.95
2023-03-20T13:48:32.343Z,4.00
2023-03-20T13:49:05.783Z,3.75
2023-03-20T13:51:20.628Z,4.85
2023-03-20T13:51:49.720Z,4.70
2023-03-20T13:54:10.547Z,4.53
2023-03-20T13:54:32.348Z,4.82
2023-03-20T13:56:59.240Z,4.63
2023-03-20T13:57:34.955Z,3.42
2023-03-20T13:59:53.203Z,4.97
2023-03-20T14:00:16.293Z,5.13
2023-03-20T14:02:48.259Z,4.28
2023-03-20T14:03:03.243Z,4.60
2023-03-20T14:05:22.956Z,4.40
2023-03-20T14:05:35.896Z,2.90
2023-03-20T14:07:56.362Z,4.55
2023-03-20T14:08:27.647Z,4.90
2023-03-20T14:10:24.059Z,4.55
2023-03-20T14:11:21.463Z,5.05
2023-03-20T14:12:59.449Z,5.10
2023-03-20T14:13:51.963Z,4.97
2023-03-20T14:15:31.467Z,5.07
2023-03-20T14:16:20.746Z,4.45
2023-03-20T14:18:04.495Z,4.68
2023-03-20T14:18:50.854Z,5.55
2023-03-20T14:20:40.910Z,4.85
2023-03-20T14:21:24.745Z,5.93
2023-03-20T14:23:17.921Z,4.85
2023-03-20T14:24:00.762Z,2.60
2023-03-20T14:25:47.613Z,4.88
2023-03-20T14:26:30.760Z,3.58
2023-03-20T14:28:14.651Z,4.88
2023-03-20T14:29:10.920Z,4.00
2023-03-20T14:30:44.096Z,4.65
2023-03-20T14:31:42.063Z,5.13
2023-03-20T14:33:17.293Z,4.70
2023-03-20T14:34:12.756Z,5.13
2023-03-20T14:35:49.256Z,4.53
2023-03-20T14:37:00.195Z,4.85
2023-03-20T14:38:35.532Z,4.32
2023-03-20T14:39:34.936Z,4.38
2023-03-20T14:41:26.648Z,4.57
2023-03-20T14:42:25.205Z,4.82
2023-03-20T14:44:08.505Z,4.15
2023-03-20T14:45:01.847Z,3.17
2023-03-20T14:46:53.756Z,4.13
2023-03-20T14:47:46.282Z,6.15
2023-03-20T14:49:31.103Z,4.25
2023-03-20T14:51:02.243Z,4.47
2023-03-20T14:52:22.575Z,4.40
2023-03-20T14:53:29.904Z,5.28
2023-03-20T14:54:54.096Z,4.47
2023-03-20T14:55:57.667Z,3.97
2023-03-20T14:57:52.840Z,4.72
2023-03-20T14:58:48.890Z,4.38
2023-03-20T15:00:25.920Z,4.60
2023-03-20T15:01:22.765Z,4.55
2023-03-20T15:03:02.354Z,4.38
2023-03-20T15:03:56.427Z,3.53
2023-03-20T15:05:32.481Z,4.43
2023-03-20T15:06:26.246Z,5.90
2023-03-20T15:08:21.581Z,4.85
2023-03-20T15:09:00.874Z,3.80
2023-03-20T15:10:53.310Z,4.55
2023-03-20T15:11:28.680Z,5.05
2023-03-20T15:13:21.422Z,4.75
2023-03-20T15:13:58.498Z,3.58
2023-03-20T15:15:57.588Z,4.25
2023-03-20T15:16:29.233Z,4.43
2023-03-20T15:18:27.127Z,4.60
2023-03-20T15:18:57.278Z,4.00
2023-03-20T15:20:58.122Z,4.10
2023-03-20T15:21:36.221Z,3.00
2023-03-20T15:23:26.246Z,4.05
2023-03-20T15:24:04.323Z,4.05
2023-03-20T15:25:53.461Z,4.47
2023-03-20T15:26:34.629Z,5.32
2023-03-20T15:28:26.587Z,4.18
2023-03-20T15:29:08.710Z,4.90
2023-03-20T15:30:57.359Z,4.68
2023-03-20T15:31:38.909Z,4.88
2023-03-20T15:33:41.821Z,4.30
2023-03-20T15:34:11.194Z,5.75
2023-03-20T15:36:14.811Z,4.18
2023-03-20T15:36:40.629Z,5.53
2023-03-20T15:38:43.566Z,4.35
2023-03-20T15:39:15.531Z,6.53
2023-03-20T15:41:27.562Z,3.75
2023-03-20T15:41:47.417Z,5.97
2023-03-20T15:44:03.440Z,4.28
2023-03-20T15:44:21.893Z,3.78
2023-03-20T15:46:30.592Z,3.67
2023-03-20T15:47:03.977Z,4.00
2023-03-20T15:49:00.273Z,3.88
2023-03-20T15:49:32.902Z,5.97
2023-03-20T15:51:28.216Z,4.03
2023-03-20T15:52:04.098Z,3.90
2023-03-20T15:53:55.535Z,4.43
2023-03-20T15:54:32.144Z,5.10
2023-03-20T15:56:27.463Z,4.25
2023-03-20T15:57:03.213Z,3.67
2023-03-20T15:58:56.479Z,3.97
2023-03-20T15:59:32.969Z,5.43
2023-03-20T16:01:25.766Z,4.18
2023-03-20T16:02:01.480Z,4.70
2023-03-20T16:03:58.015Z,4.10
2023-03-20T16:04:29.378Z,5.45
2023-03-20T16:06:25.552Z,3.72
2023-03-20T16:07:01.305Z,5.97
2023-03-20T16:08:57.611Z,3.85
2023-03-20T16:09:29.598Z,5.03
2023-03-20T16:11:24.616Z,4.00
2023-03-20T16:12:01.935Z,4.60
2023-03-20T16:13:53.046Z,3.85
2023-03-20T16:14:31.768Z,4.68
2023-03-20T16:16:24.594Z,3.65
2023-03-20T16:17:00.955Z,4.72
2023-03-20T16:18:52.132Z,3.75
2023-03-20T16:19:29.641Z,5.75
2023-03-20T16:21:25.224Z,3.90
2023-03-20T16:22:00.368Z,5.40
2023-03-20T16:23:54.973Z,3.85
2023-03-20T16:24:31.286Z,5.22
2023-03-20T16:26:24.753Z,4.30
2023-03-20T16:26:59.212Z,4.07
2023-03-20T16:28:55.423Z,3.65
2023-03-20T16:29:28.408Z,3.92
2023-03-20T16:31:29.860Z,4.30
2023-03-20T16:32:05.852Z,3.40
2023-03-20T16:34:04.148Z,3.73
2023-03-20T16:34:36.063Z,4.78
2023-03-20T16:36:34.228Z,3.78
2023-03-20T16:37:09.116Z,4.78
2023-03-20T16:39:20.067Z,3.80
2023-03-20T16:39:36.759Z,3.60
2023-03-20T16:41:50.226Z,3.88
2023-03-20T16:42:27.850Z,3.53
2023-03-20T16:44:23.096Z,4.10
2023-03-20T16:44:56.755Z,4.70
2023-03-20T16:47:22.094Z,4.10
2023-03-20T16:47:39.225Z,3.70
2023-03-20T16:49:55.473Z,3.30
2023-03-20T16:50:20.134Z,5.30
2023-03-20T16:52:29.182Z,3.80
2023-03-20T16:52:50.964Z,4.88
2023-03-20T16:54:57.736Z,3.72
2023-03-20T16:55:31.696Z,4.47
2023-03-20T16:57:27.031Z,3.78
2023-03-20T16:58:03.447Z,3.30
2023-03-20T17:00:01.038Z,3.90
2023-03-20T17:00:33.867Z,2.80
2023-03-20T17:02:31.835Z,3.70
2023-03-20T17:03:16.737Z,4.47
2023-03-20T17:05:06.815Z,3.92
2023-03-20T17:05:51.886Z,3.80
2023-03-20T17:07:33.901Z,3.72
2023-03-20T17:08:29.516Z,4.85
2023-03-20T17:10:20.459Z,4.15
2023-03-20T17:11:00.371Z,5.20
2023-03-20T17:12:50.348Z,3.80
2023-03-20T17:13:28.084Z,4.05
2023-03-20T17:15:23.557Z,4.00
2023-03-20T17:15:55.912Z,5.10
2023-03-20T17:17:50.809Z,3.58